createdAt,value
2018-08-31T00:02:01.405Z,1.70
2018-08-31T00:04:42.150Z,2.37
2018-08-31T00:07:25.238Z,1.97
2018-08-31T00:13:06.163Z,2.00
2018-08-31T00:15:34.654Z,1.53
2018-08-31T00:18:03.178Z,2.00
2018-08-31T00:20:32.045Z,2.10
2018-08-31T00:23:00.529Z,2.80
2018-08-31T00:26:06.442Z,2.33
2018-08-31T00:28:47.049Z,2.10
2018-08-31T00:31:26.661Z,2.17
2018-08-31T00:35:20.622Z,1.97
2018-08-31T00:38:02.942Z,1.83
2018-08-31T00:41:08.861Z,2.70
2018-08-31T00:44:51.983Z,2.00
2018-08-31T00:47:20.503Z,2.20
2018-08-31T00:49:48.967Z,2.37
2018-08-31T00:52:17.437Z,2.27
2018-08-31T00:54:45.966Z,2.10
2018-08-31T00:57:14.434Z,1.60
2018-08-31T00:59:42.907Z,1.73
2018-08-31T01:02:11.644Z,1.83
2018-08-31T01:04:40.121Z,1.63
2018-08-31T01:07:08.970Z,1.90
2018-08-31T01:09:37.607Z,1.73
2018-08-31T01:12:06.259Z,2.30
2018-08-31T01:14:34.743Z,1.70
2018-08-31T01:17:03.259Z,1.43
2018-08-31T01:19:31.803Z,1.90
2018-08-31T01:22:00.315Z,1.83
2018-08-31T01:24:28.788Z,1.77
2018-08-31T01:26:57.330Z,2.17
2018-08-31T01:29:25.855Z,1.60
2018-08-31T01:31:54.779Z,1.50
2018-08-31T01:34:23.242Z,1.47
2018-08-31T01:36:51.695Z,2.00
2018-08-31T01:39:20.216Z,2.27
2018-08-31T01:41:48.730Z,2.17
2018-08-31T01:44:17.190Z,2.23
2018-08-31T01:46:45.667Z,2.67
2018-08-31T01:49:14.195Z,2.03
2018-08-31T01:51:42.671Z,2.57
2018-08-31T01:54:11.383Z,2.07
2018-08-31T01:56:39.850Z,1.90
2018-08-31T01:59:08.347Z,1.73
2018-08-31T02:01:36.820Z,1.70
2018-08-31T02:04:05.331Z,2.23
2018-08-31T02:06:34.579Z,1.70
2018-08-31T02:09:08.498Z,1.80
2018-08-31T02:11:37.007Z,1.97
2018-08-31T02:14:06.558Z,1.87
2018-08-31T02:16:35.188Z,2.30
2018-08-31T02:19:03.841Z,1.80
2018-08-31T02:21:32.439Z,1.93
2018-08-31T02:24:01.425Z,1.80
2018-08-31T02:26:29.986Z,1.83
2018-08-31T02:28:58.482Z,1.80
2018-08-31T02:31:26.987Z,1.90
2018-08-31T02:33:55.563Z,2.13
2018-08-31T02:36:24.292Z,1.83
2018-08-31T02:38:52.939Z,1.77
2018-08-31T02:41:21.454Z,2.37
2018-08-31T02:43:50.699Z,2.00
2018-08-31T02:46:20.515Z,1.93
2018-08-31T02:48:49.915Z,1.97
2018-08-31T02:51:18.399Z,2.17
2018-08-31T02:53:46.910Z,2.20
2018-08-31T02:56:15.389Z,2.03
2018-08-31T02:58:43.914Z,2.10
2018-08-31T03:01:12.389Z,2.17
2018-08-31T03:03:40.859Z,2.33
2018-08-31T03:06:09.347Z,2.93
2018-08-31T03:08:37.858Z,2.43
2018-08-31T03:11:06.369Z,2.20
2018-08-31T03:13:34.835Z,2.07
2018-08-31T03:16:03.382Z,2.37
2018-08-31T03:18:31.915Z,2.30
2018-08-31T03:21:00.395Z,2.40
2018-08-31T03:23:28.850Z,2.30
2018-08-31T03:25:57.323Z,1.83
2018-08-31T03:28:25.799Z,2.67
2018-08-31T03:30:54.263Z,2.80
2018-08-31T03:33:22.734Z,1.90
2018-08-31T03:35:51.274Z,2.10
2018-08-31T03:38:19.743Z,2.57
2018-08-31T03:40:48.214Z,2.00
2018-08-31T03:43:16.663Z,2.50
2018-08-31T03:45:45.134Z,2.73
2018-08-31T03:48:13.610Z,2.07
2018-08-31T03:50:42.147Z,3.30
2018-08-31T03:53:10.637Z,2.27
2018-08-31T03:55:39.139Z,2.50
2018-08-31T03:58:07.627Z,2.30
2018-08-31T04:00:36.135Z,2.30
2018-08-31T04:03:04.673Z,1.77
2018-08-31T04:05:33.226Z,2.23
2018-08-31T04:08:01.705Z,2.30
2018-08-31T04:10:30.173Z,2.13
2018-08-31T04:12:58.646Z,2.40
2018-08-31T04:15:27.230Z,2.43
2018-08-31T04:17:55.741Z,2.73
2018-08-31T04:20:57.733Z,2.20
2018-08-31T04:23:26.238Z,2.60
2018-08-31T04:25:54.702Z,2.47
2018-08-31T04:28:23.194Z,2.50
2018-08-31T04:30:57.743Z,2.00
2018-08-31T04:33:26.238Z,2.20
2018-08-31T04:35:54.719Z,2.03
2018-08-31T04:38:23.207Z,2.20
2018-08-31T04:40:51.726Z,3.03
2018-08-31T04:43:20.207Z,2.43
2018-08-31T04:45:48.781Z,1.90
2018-08-31T04:48:17.312Z,3.00
2018-08-31T04:50:49.535Z,2.17
2018-08-31T04:53:17.994Z,2.60
2018-08-31T04:55:50.227Z,2.17
2018-08-31T04:58:18.983Z,2.10
2018-08-31T05:02:44.083Z,2.67
2018-08-31T05:05:22.560Z,2.50
2018-08-31T05:10:45.850Z,2.23
2018-08-31T05:16:27.946Z,2.23
2018-08-31T05:19:08.064Z,2.10
2018-08-31T05:29:59.190Z,2.53
2018-08-31T05:32:27.657Z,2.40
2018-08-31T05:34:56.134Z,2.17
2018-08-31T05:37:24.623Z,2.53
2018-08-31T05:39:53.111Z,2.10
2018-08-31T05:42:21.580Z,2.30
2018-08-31T05:44:50.043Z,2.10
2018-08-31T05:47:18.502Z,2.50
2018-08-31T05:49:46.966Z,2.27
2018-08-31T05:52:15.498Z,2.77
2018-08-31T05:54:43.990Z,3.23
2018-08-31T05:57:12.482Z,2.50
2018-08-31T05:59:40.935Z,2.63
2018-08-31T06:02:09.444Z,2.70
2018-08-31T06:04:40.262Z,2.10
2018-08-31T06:07:08.723Z,2.60
2018-08-31T06:09:37.182Z,2.73
2018-08-31T06:12:05.663Z,2.67
2018-08-31T06:14:34.183Z,3.10
2018-08-31T06:17:02.670Z,2.90
2018-08-31T06:19:31.172Z,2.37
2018-08-31T06:21:59.634Z,2.73
2018-08-31T06:24:28.327Z,2.67
2018-08-31T06:26:56.807Z,2.33
2018-08-31T06:29:25.270Z,3.07
2018-08-31T06:31:53.738Z,2.50
2018-08-31T06:34:22.204Z,3.20
2018-08-31T06:36:50.697Z,2.23
2018-08-31T06:39:19.163Z,3.10
2018-08-31T06:41:47.639Z,2.97
2018-08-31T06:44:16.106Z,2.70
2018-08-31T06:46:44.774Z,2.70
2018-08-31T06:49:13.291Z,2.90
2018-08-31T06:51:41.750Z,3.33
2018-08-31T06:54:10.207Z,3.13
2018-08-31T06:56:38.694Z,3.00
2018-08-31T06:59:07.547Z,3.00
2018-08-31T07:01:36.058Z,3.40
2018-08-31T07:04:04.590Z,2.93
2018-08-31T07:06:33.055Z,2.70
2018-08-31T07:09:01.524Z,2.90
2018-08-31T07:11:30.030Z,2.87
2018-08-31T07:13:58.496Z,2.70
2018-08-31T07:16:26.961Z,2.77
2018-08-31T07:18:55.436Z,2.73
2018-08-31T07:21:23.923Z,2.60
2018-08-31T07:23:52.383Z,3.10
2018-08-31T07:26:20.901Z,2.63
2018-08-31T07:28:49.322Z,2.90
2018-08-31T07:31:17.774Z,3.10
2018-08-31T07:33:46.246Z,3.10
2018-08-31T07:36:14.732Z,3.03
2018-08-31T07:38:43.171Z,3.17
2018-08-31T07:41:11.690Z,3.47
2018-08-31T07:43:40.182Z,3.63
2018-08-31T07:46:08.647Z,3.27
2018-08-31T07:48:37.122Z,3.50
2018-08-31T07:51:13.362Z,3.63
2018-08-31T07:53:41.873Z,2.93
2018-08-31T07:56:10.392Z,4.40
2018-08-31T07:58:38.906Z,3.63
2018-08-31T08:01:07.799Z,3.57
2018-08-31T08:03:36.262Z,3.70
2018-08-31T08:06:04.771Z,3.13
2018-08-31T08:08:33.359Z,3.17
2018-08-31T08:11:01.832Z,2.97
2018-08-31T08:13:30.303Z,3.60
2018-08-31T08:15:58.786Z,4.23
2018-08-31T08:18:27.239Z,3.70
2018-08-31T08:20:55.741Z,3.87
2018-08-31T08:23:25.034Z,3.67
2018-08-31T08:25:53.528Z,4.17
2018-08-31T08:28:22.028Z,3.90
2018-08-31T08:30:50.490Z,3.80
2018-08-31T08:33:19.016Z,4.53
2018-08-31T08:35:47.592Z,3.67
2018-08-31T08:38:24.931Z,4.40
2018-08-31T08:40:53.422Z,3.80
2018-08-31T08:43:31.180Z,3.90
2018-08-31T08:45:59.679Z,3.60
2018-08-31T08:48:36.407Z,3.93
2018-08-31T08:51:04.730Z,3.83
2018-08-31T08:53:33.219Z,3.83
2018-08-31T08:56:01.682Z,4.40
2018-08-31T08:58:30.162Z,3.30
2018-08-31T09:00:58.622Z,3.50
2018-08-31T09:03:27.171Z,3.57
2018-08-31T09:05:55.643Z,3.90
2018-08-31T09:08:24.134Z,4.43
2018-08-31T09:10:52.614Z,3.73
2018-08-31T09:13:21.180Z,3.23
2018-08-31T09:15:49.643Z,3.53
2018-08-31T09:18:23.059Z,4.70
2018-08-31T09:20:51.559Z,4.17
2018-08-31T09:23:20.055Z,3.90
2018-08-31T09:26:03.494Z,4.03
2018-08-31T09:28:32.007Z,4.17
2018-08-31T09:31:00.671Z,3.60
2018-08-31T09:33:29.147Z,3.87
2018-08-31T09:35:57.612Z,3.83
2018-08-31T09:38:26.104Z,3.60
2018-08-31T09:40:54.562Z,3.13
2018-08-31T09:43:23.042Z,4.40
2018-08-31T09:45:51.510Z,3.80
2018-08-31T09:48:20.007Z,3.10
2018-08-31T09:50:48.490Z,2.97
2018-08-31T09:53:16.963Z,3.60
2018-08-31T09:55:45.435Z,3.80
2018-08-31T09:58:13.904Z,3.77
2018-08-31T10:00:47.784Z,3.80
2018-08-31T10:03:25.443Z,3.87
2018-08-31T10:05:55.023Z,4.80
2018-08-31T10:08:25.612Z,4.80
2018-08-31T10:10:54.221Z,4.40
2018-08-31T10:13:22.957Z,3.83
2018-08-31T10:15:51.643Z,3.97
2018-08-31T10:18:20.106Z,4.07
2018-08-31T10:20:48.570Z,3.33
2018-08-31T10:23:17.035Z,4.93
2018-08-31T10:25:45.519Z,3.87
2018-08-31T10:28:13.983Z,4.00
2018-08-31T10:30:42.451Z,3.80
2018-08-31T10:33:10.910Z,3.07
2018-08-31T10:35:39.407Z,4.10
2018-08-31T10:38:07.897Z,4.17
2018-08-31T10:40:36.371Z,3.90
2018-08-31T10:43:04.872Z,4.17
2018-08-31T10:45:33.480Z,3.70
2018-08-31T10:48:01.952Z,4.47
2018-08-31T10:50:30.473Z,5.70
2018-08-31T10:52:58.963Z,4.60
2018-08-31T10:55:27.442Z,5.77
2018-08-31T10:57:55.913Z,5.27
2018-08-31T11:00:24.393Z,5.80
2018-08-31T11:02:52.922Z,4.70
2018-08-31T11:05:21.391Z,5.87
2018-08-31T11:07:49.867Z,5.60
2018-08-31T11:10:18.339Z,4.80
2018-08-31T11:12:46.956Z,5.10
2018-08-31T11:15:15.423Z,5.20
2018-08-31T11:17:44.147Z,5.13
2018-08-31T11:20:12.622Z,5.27
2018-08-31T11:22:41.083Z,4.57
2018-08-31T11:25:09.710Z,5.70
2018-08-31T11:27:38.178Z,5.93
2018-08-31T11:30:07.682Z,5.50
2018-08-31T11:32:36.497Z,4.87
2018-08-31T11:35:05.617Z,4.97
2018-08-31T11:37:34.099Z,5.03
2018-08-31T11:40:02.702Z,5.60
2018-08-31T11:42:31.366Z,5.50
2018-08-31T11:44:59.853Z,5.10
2018-08-31T11:47:28.338Z,4.90
2018-08-31T11:49:56.919Z,5.53
2018-08-31T11:52:25.381Z,4.73
2018-08-31T11:54:53.846Z,5.10
2018-08-31T11:57:22.291Z,5.17
2018-08-31T11:59:50.754Z,5.53
2018-08-31T12:02:19.243Z,5.37
2018-08-31T12:04:47.695Z,5.07
2018-08-31T12:07:16.143Z,4.90
2018-08-31T12:09:44.658Z,4.87
2018-08-31T12:12:13.150Z,5.00
2018-08-31T12:14:41.656Z,5.53
2018-08-31T12:17:10.134Z,5.10
2018-08-31T12:19:38.652Z,5.30
2018-08-31T12:22:07.136Z,5.73
2018-08-31T12:24:35.597Z,5.40
2018-08-31T12:27:04.080Z,5.73
2018-08-31T12:29:32.590Z,4.60
2018-08-31T12:32:01.102Z,5.40
2018-08-31T12:34:29.567Z,5.97
2018-08-31T12:36:58.039Z,5.63
2018-08-31T12:39:26.490Z,6.17
2018-08-31T12:41:54.987Z,6.10
2018-08-31T12:44:23.477Z,5.50
2018-08-31T12:46:51.934Z,5.90
2018-08-31T12:49:20.386Z,6.13
2018-08-31T12:51:48.847Z,6.63
2018-08-31T12:54:17.319Z,5.67
2018-08-31T12:56:45.794Z,5.70
2018-08-31T12:59:14.271Z,5.77
2018-08-31T13:01:42.739Z,6.00
2018-08-31T13:04:11.211Z,6.57
2018-08-31T13:06:39.678Z,6.37
2018-08-31T13:09:08.479Z,6.00
2018-08-31T13:11:37.013Z,5.20
2018-08-31T13:14:05.530Z,5.60
2018-08-31T13:16:33.994Z,5.90
2018-08-31T13:19:02.588Z,6.37
2018-08-31T13:21:31.162Z,6.43
2018-08-31T13:23:59.627Z,5.63
2018-08-31T13:26:28.142Z,6.13
2018-08-31T13:28:56.629Z,6.37
2018-08-31T13:31:25.103Z,5.90
2018-08-31T13:33:53.579Z,6.33
2018-08-31T13:36:22.038Z,5.93
2018-08-31T13:38:50.506Z,5.57
2018-08-31T13:41:18.971Z,6.03
2018-08-31T13:43:47.442Z,6.47
2018-08-31T13:46:15.911Z,6.90
2018-08-31T13:48:44.386Z,5.83
2018-08-31T13:51:12.863Z,6.40
2018-08-31T13:53:41.351Z,6.53
2018-08-31T13:56:09.823Z,7.40
2018-08-31T13:58:38.302Z,6.77
2018-08-31T14:01:06.787Z,6.50
2018-08-31T14:03:35.266Z,6.17
2018-08-31T14:06:03.734Z,7.10
2018-08-31T14:08:32.329Z,7.20
2018-08-31T14:11:00.808Z,5.87
2018-08-31T14:13:29.503Z,6.30
2018-08-31T14:15:58.021Z,6.40
2018-08-31T14:18:26.492Z,6.20
2018-08-31T14:20:54.947Z,5.90
2018-08-31T14:23:23.418Z,6.40
2018-08-31T14:25:51.891Z,5.73
2018-08-31T14:28:20.383Z,6.30
2018-08-31T14:30:48.863Z,5.97
2018-08-31T14:33:17.337Z,6.77
2018-08-31T14:35:45.794Z,6.50
2018-08-31T14:38:14.286Z,6.43
2018-08-31T14:40:42.766Z,6.00
2018-08-31T14:43:11.634Z,6.70
2018-08-31T14:45:40.094Z,6.20
2018-08-31T14:48:08.584Z,6.57
2018-08-31T14:50:37.060Z,6.50
2018-08-31T14:53:05.619Z,5.60
2018-08-31T14:55:34.195Z,6.27
2018-08-31T14:58:02.655Z,6.60
2018-08-31T15:00:31.115Z,6.43
2018-08-31T15:02:59.797Z,6.83
2018-08-31T15:05:29.104Z,5.70
2018-08-31T15:07:57.579Z,6.67
2018-08-31T15:10:26.135Z,6.47
2018-08-31T15:12:54.626Z,6.40
2018-08-31T15:15:23.086Z,6.43
2018-08-31T15:17:52.031Z,6.40
2018-08-31T15:20:20.784Z,6.63
2018-08-31T15:22:49.298Z,6.00
2018-08-31T15:25:17.887Z,6.23
2018-08-31T15:27:46.316Z,6.47
2018-08-31T15:30:15.167Z,6.50
2018-08-31T15:32:43.634Z,5.70
2018-08-31T15:35:12.126Z,7.40
2018-08-31T15:37:40.595Z,6.00
2018-08-31T15:40:09.517Z,6.60
2018-08-31T15:42:38.543Z,7.37
2018-08-31T15:45:07.427Z,6.20
2018-08-31T15:47:36.067Z,7.40
2018-08-31T15:50:05.000Z,5.77
2018-08-31T15:52:33.451Z,6.00
2018-08-31T15:55:01.911Z,6.53
2018-08-31T15:57:30.374Z,5.70
2018-08-31T15:59:58.850Z,6.97
2018-08-31T16:02:27.389Z,6.40
2018-08-31T16:04:55.811Z,6.30
2018-08-31T16:07:24.274Z,6.50
2018-08-31T16:09:52.852Z,7.00
2018-08-31T16:12:21.319Z,6.47
2018-08-31T16:14:49.788Z,6.13
2018-08-31T16:17:18.259Z,9.57
2018-08-31T16:19:46.737Z,26.97
2018-08-31T16:22:15.215Z,9.10
2018-08-31T16:24:43.714Z,6.43
2018-08-31T16:27:12.190Z,6.40
2018-08-31T16:29:40.651Z,6.37
2018-08-31T16:32:09.302Z,7.90
2018-08-31T16:34:37.850Z,6.60
2018-08-31T16:37:06.346Z,10.67
2018-08-31T16:39:34.867Z,8.40
2018-08-31T16:42:03.343Z,6.70
2018-08-31T16:44:31.939Z,6.30
2018-08-31T16:47:00.446Z,6.30
2018-08-31T16:49:28.926Z,8.00
2018-08-31T16:51:57.387Z,7.07
2018-08-31T16:54:25.858Z,7.40
2018-08-31T16:56:54.327Z,6.13
2018-08-31T16:59:22.814Z,6.20
2018-08-31T17:01:51.286Z,6.40
2018-08-31T17:04:19.777Z,6.80
2018-08-31T17:06:48.246Z,6.60
2018-08-31T17:09:16.717Z,6.47
2018-08-31T17:11:45.188Z,5.93
2018-08-31T17:14:13.649Z,6.80
2018-08-31T17:16:42.156Z,6.10
2018-08-31T17:19:10.577Z,6.23
2018-08-31T17:21:39.084Z,6.90
2018-08-31T17:24:07.555Z,7.07
2018-08-31T17:27:43.100Z,8.00
2018-08-31T17:30:16.987Z,6.70
2018-08-31T17:32:50.807Z,7.43
2018-08-31T17:35:24.552Z,6.00
2018-08-31T17:37:53.046Z,6.70
2018-08-31T17:40:21.595Z,6.37
2018-08-31T17:42:50.046Z,6.33
2018-08-31T17:45:19.553Z,6.30
2018-08-31T17:47:48.730Z,6.60
2018-08-31T17:50:17.334Z,5.97
2018-08-31T17:52:46.214Z,7.17
2018-08-31T17:55:15.005Z,8.27
2018-08-31T17:57:43.870Z,7.30
2018-08-31T18:00:12.927Z,7.53
2018-08-31T18:02:41.695Z,7.00
2018-08-31T18:05:10.264Z,7.50
2018-08-31T18:07:38.751Z,7.30
2018-08-31T18:10:07.358Z,7.70
2018-08-31T18:12:35.894Z,6.70
2018-08-31T18:15:04.714Z,7.73
2018-08-31T18:17:33.314Z,7.57
2018-08-31T18:20:01.792Z,6.63
2018-08-31T18:22:30.290Z,6.73
2018-08-31T18:24:58.747Z,6.43
2018-08-31T18:27:27.198Z,6.10
2018-08-31T18:29:55.751Z,6.57
2018-08-31T18:32:24.212Z,6.07
2018-08-31T18:34:52.686Z,6.43
2018-08-31T18:37:21.154Z,5.90
2018-08-31T18:39:49.651Z,6.50
2018-08-31T18:42:18.109Z,5.90
2018-08-31T18:44:46.573Z,7.10
2018-08-31T18:47:15.044Z,7.53
2018-08-31T18:49:43.562Z,7.03
2018-08-31T18:52:12.086Z,7.33
2018-08-31T18:54:40.555Z,6.97
2018-08-31T18:57:09.259Z,6.93
2018-08-31T18:59:37.731Z,7.30
2018-08-31T19:02:06.346Z,7.30
2018-08-31T19:04:34.822Z,7.50
2018-08-31T19:07:03.377Z,7.40
2018-08-31T19:09:31.850Z,7.50
2018-08-31T19:12:00.355Z,6.70
2018-08-31T19:14:28.827Z,6.77
2018-08-31T19:16:57.308Z,7.07
2018-08-31T19:19:28.010Z,6.67
2018-08-31T19:21:57.429Z,6.37
2018-08-31T19:24:26.695Z,6.13
2018-08-31T19:26:56.957Z,6.77
2018-08-31T19:29:28.431Z,6.27
2018-08-31T19:31:56.960Z,6.90
2018-08-31T19:34:25.417Z,7.53
2018-08-31T19:36:54.705Z,6.43
2018-08-31T19:39:23.222Z,6.50
2018-08-31T19:41:51.751Z,6.93
2018-08-31T19:44:21.486Z,7.50
2018-08-31T19:46:49.997Z,6.73
2018-08-31T19:49:18.453Z,6.93
2018-08-31T19:51:46.919Z,6.60
2018-08-31T19:54:15.390Z,6.53
2018-08-31T19:56:43.852Z,5.17
2018-08-31T19:59:12.314Z,7.60
2018-08-31T20:01:40.791Z,6.90
2018-08-31T20:04:09.392Z,6.80
2018-08-31T20:06:37.947Z,6.77
2018-08-31T20:09:07.815Z,6.40
2018-08-31T20:11:36.507Z,7.10
2018-08-31T20:14:05.294Z,6.70
2018-08-31T20:16:33.762Z,7.27
2018-08-31T20:19:02.247Z,6.67
2018-08-31T20:21:30.714Z,6.43
2018-08-31T20:23:59.219Z,7.00
2018-08-31T20:26:28.078Z,6.90
2018-08-31T20:28:56.895Z,6.60
2018-08-31T20:31:25.351Z,6.80
2018-08-31T20:33:53.814Z,5.97
2018-08-31T20:36:22.287Z,6.50
2018-08-31T20:38:50.826Z,4.80
2018-08-31T20:41:19.266Z,6.30
2018-08-31T20:43:47.751Z,6.30
2018-08-31T20:46:16.220Z,5.93
2018-08-31T20:48:44.686Z,6.30
2018-08-31T20:51:13.162Z,6.50
2018-08-31T20:53:41.678Z,6.13
2018-08-31T20:56:10.147Z,6.23
2018-08-31T20:58:38.684Z,6.30
2018-08-31T21:01:07.138Z,6.47
2018-08-31T21:03:35.662Z,6.50
2018-08-31T21:06:04.194Z,5.90
2018-08-31T21:08:32.738Z,6.80
2018-08-31T21:11:01.207Z,6.63
2018-08-31T21:13:29.659Z,7.30
2018-08-31T21:15:58.124Z,6.53
2018-08-31T21:18:26.606Z,7.57
2018-08-31T21:20:55.083Z,6.07
2018-08-31T21:23:23.543Z,6.40
2018-08-31T21:25:52.009Z,7.10
2018-08-31T21:28:20.466Z,6.83
2018-08-31T21:30:48.944Z,5.93
2018-08-31T21:33:17.407Z,6.23
2018-08-31T21:35:45.979Z,6.90
2018-08-31T21:38:14.452Z,6.43
2018-08-31T21:40:42.915Z,6.87
2018-08-31T21:43:11.386Z,7.50
2018-08-31T21:45:39.862Z,6.47
2018-08-31T21:48:08.436Z,6.73
2018-08-31T21:50:36.942Z,6.50
2018-08-31T21:53:05.687Z,6.40
2018-08-31T21:55:34.202Z,7.17
2018-08-31T21:58:02.671Z,7.70
2018-08-31T22:00:35.395Z,6.40
2018-08-31T22:03:03.918Z,6.40
2018-08-31T22:05:32.514Z,6.80
2018-08-31T22:08:00.975Z,6.90
2018-08-31T22:10:29.444Z,6.93
2018-08-31T22:12:57.920Z,7.33
2018-08-31T22:15:27.198Z,7.27
2018-08-31T22:17:56.119Z,7.60
2018-08-31T22:20:24.987Z,6.80
2018-08-31T22:22:54.568Z,8.10
2018-08-31T22:25:24.182Z,9.67
2018-08-31T22:27:52.674Z,7.53
2018-08-31T22:30:21.166Z,7.50
2018-08-31T22:32:49.643Z,8.63
2018-08-31T22:35:18.094Z,8.60
2018-08-31T22:37:46.573Z,8.50
2018-08-31T22:40:15.035Z,7.93
2018-08-31T22:42:43.523Z,8.90
2018-08-31T22:45:12.939Z,9.23
2018-08-31T22:47:42.266Z,7.60
2018-08-31T22:50:11.055Z,9.73
2018-08-31T22:52:39.770Z,8.90
2018-08-31T22:55:08.310Z,10.30
2018-08-31T22:57:36.842Z,10.00
2018-08-31T23:00:05.534Z,10.70
2018-08-31T23:02:34.059Z,10.70
2018-08-31T23:05:02.640Z,10.90
2018-08-31T23:07:36.582Z,10.13
2018-08-31T23:10:05.485Z,10.13
2018-08-31T23:12:33.967Z,8.90
2018-08-31T23:15:02.462Z,9.80
2018-08-31T23:17:31.013Z,9.93
2018-08-31T23:20:00.186Z,10.53
2018-08-31T23:22:29.528Z,10.93
2018-08-31T23:24:59.876Z,10.60
2018-08-31T23:27:29.234Z,10.13
2018-08-31T23:29:57.698Z,10.43
2018-08-31T23:32:26.819Z,10.90
2018-08-31T23:34:55.794Z,10.70
2018-08-31T23:37:24.319Z,11.30
2018-08-31T23:39:52.793Z,12.60
2018-08-31T23:42:21.274Z,11.00
2018-08-31T23:44:49.753Z,11.37
2018-08-31T23:47:18.298Z,10.57
2018-08-31T23:49:46.766Z,9.63
2018-08-31T23:52:15.230Z,10.20
2018-08-31T23:54:43.702Z,10.00
2018-08-31T23:57:12.167Z,7.83
2018-08-31T23:59:40.629Z,9.50
